Terminal Aerodrome Forecast
Issued by NWS Jackson, MS

Home | Current Version | Previous Version | Text Only | Print | Product List | Glossary On
Versions: 1 2 3 4 5 6 7 8 9 10 11 12 13 14 15 16 17 18 19 20 21 22 23 24 25
000
FTUS44 KJAN 011753
TAFHBG
TAF
KHBG 011753Z 0118/0218 20005KT P6SM SCT040 SCT250
     FM020000 18003KT P6SM SCT100
     FM020500 17004KT P6SM OVC015
     FM020700 19006KT P6SM OVC007
     FM021600 19014G20KT P6SM SCT030 BKN050=

USA.gov is the U.S. government's official web portal to all federal, state and local government web resources and services.